Time;durP1;ratioP1;P1;durP2;ratioP2;P2;SDS_P1;SDS_P2;PMS_P1;PMS_P2;Temp;Humidity;BMP_temperature;BMP_pressure;BME280_temperature;BME280_humidity;BME280_pressure;Samples;Min_cycle;Max_cycle;Signal;HPM_P1;HPM_P2
2022/04/19 00:00:47;;;;;;;5.97;4.50;;;;;;;-140.79;100.00;63287.88;5027469;28;20120;-54
2022/04/19 00:03:14;;;;;;;6.85;4.72;;;;;;;-140.79;100.00;63287.88;5027831;28;20099;-54
2022/04/19 00:05:41;;;;;;;6.78;4.90;;;;;;;-140.79;100.00;63287.88;5027353;28;20447;-55
2022/04/19 00:08:07;;;;;;;7.85;4.90;;;;;;;-140.79;100.00;63287.88;5026961;28;20108;-55
2022/04/19 00:10:33;;;;;;;7.22;4.75;;;;;;;-140.79;100.00;63287.88;5027486;28;20029;-54
2022/04/19 00:12:59;;;;;;;6.38;4.10;;;;;;;-140.79;100.00;63287.88;5027591;28;20037;-54
2022/04/19 00:15:28;;;;;;;6.47;4.55;;;;;;;-140.79;100.00;63287.88;5059055;28;20048;-54
2022/04/19 00:17:57;;;;;;;7.15;4.85;;;;;;;-140.79;100.00;63287.88;5031306;28;20115;-55
2022/04/19 00:20:23;;;;;;;6.97;4.60;;;;;;;-140.79;100.00;63287.88;5026877;28;20044;-55
2022/04/19 00:22:51;;;;;;;6.22;4.55;;;;;;;-140.79;100.00;63287.88;5027086;28;20053;-55
2022/04/19 00:25:17;;;;;;;6.60;4.53;;;;;;;-140.79;100.00;63287.88;5037704;28;20534;-55
2022/04/19 00:27:42;;;;;;;7.22;5.03;;;;;;;-140.79;100.00;63287.88;5045729;28;20112;-54
2022/04/19 00:30:08;;;;;;;7.50;5.13;;;;;;;-140.79;100.00;63287.88;5046162;28;20053;-54
2022/04/19 00:32:34;;;;;;;6.97;4.90;;;;;;;-140.79;100.00;63287.88;5047045;28;20090;-55
2022/04/19 00:35:00;;;;;;;6.35;4.43;;;;;;;-140.79;100.00;63287.88;5053939;28;20029;-55
2022/04/19 00:37:26;;;;;;;6.70;4.80;;;;;;;-140.79;100.00;63287.88;5044409;28;20072;-55
2022/04/19 00:39:52;;;;;;;6.60;4.43;;;;;;;-140.79;100.00;63287.88;5030922;28;20029;-55
2022/04/19 00:42:18;;;;;;;6.50;4.65;;;;;;;-140.79;100.00;63287.88;5026610;28;20108;-55
2022/04/19 00:44:43;;;;;;;6.57;4.28;;;;;;;-140.79;100.00;63287.88;5036476;28;20098;-55
2022/04/19 00:47:09;;;;;;;6.38;4.35;;;;;;;-140.79;100.00;63287.88;5046073;28;20075;-55
2022/04/19 00:49:38;;;;;;;6.80;4.28;;;;;;;-140.79;100.00;63287.88;5046103;28;20432;-55
2022/04/19 00:52:04;;;;;;;6.10;4.38;;;;;;;-140.79;100.00;63287.88;5045710;28;20099;-54
2022/04/19 00:54:30;;;;;;;6.68;4.20;;;;;;;-140.79;100.00;63287.88;5061335;28;20039;-55
2022/04/19 00:56:55;;;;;;;6.63;4.63;;;;;;;-140.79;100.00;63287.88;5061336;28;20620;-55
2022/04/19 00:59:21;;;;;;;5.93;4.10;;;;;;;-140.79;100.00;63287.88;5045978;28;20453;-54
2022/04/19 01:01:47;;;;;;;6.05;4.00;;;;;;;-140.79;100.00;63287.88;5031476;28;20034;-55
2022/04/19 01:04:12;;;;;;;6.35;4.10;;;;;;;-140.79;100.00;63287.88;5027421;28;20095;-55
2022/04/19 01:06:38;;;;;;;6.32;4.40;;;;;;;-140.79;100.00;63287.88;5045828;28;20071;-55
2022/04/19 01:09:03;;;;;;;7.03;4.47;;;;;;;-140.79;100.00;63287.88;5045754;28;20043;-55
2022/04/19 01:14:13;;;;;;;5.18;3.90;;;;;;;-140.79;100.00;63287.88;5038915;28;20068;-55
2022/04/19 01:16:40;;;;;;;5.45;3.97;;;;;;;-140.79;100.00;63287.88;5025441;28;20479;-55
2022/04/19 01:19:08;;;;;;;5.63;4.03;;;;;;;-140.79;100.00;63287.88;5040539;28;20129;-55
2022/04/19 01:21:44;;;;;;;5.80;3.97;;;;;;;-140.79;100.00;63287.88;5050446;28;20051;-55
2022/04/19 01:24:14;;;;;;;5.07;3.72;;;;;;;-140.79;100.00;63287.88;5025595;28;20040;-55
2022/04/19 01:26:39;;;;;;;5.68;4.07;;;;;;;-140.79;100.00;63287.88;5025503;28;20035;-55
2022/04/19 01:29:05;;;;;;;6.28;4.13;;;;;;;-140.79;100.00;63287.88;5025623;28;20504;-56
2022/04/19 01:31:30;;;;;;;5.30;3.97;;;;;;;-140.79;100.00;63287.88;5034837;28;20045;-55
2022/04/19 01:33:56;;;;;;;5.40;3.97;;;;;;;-140.79;100.00;63287.88;5027107;28;20044;-55
2022/04/19 01:36:22;;;;;;;5.72;3.58;;;;;;;-140.79;100.00;63287.88;5041792;28;20040;-55
2022/04/19 01:38:48;;;;;;;5.60;3.67;;;;;;;-140.79;100.00;63287.88;5031879;28;20016;-55
2022/04/19 01:41:13;;;;;;;5.40;3.80;;;;;;;-140.79;100.00;63287.88;5037777;28;20022;-55
2022/04/19 01:43:39;;;;;;;5.60;4.00;;;;;;;-140.79;100.00;63287.88;5042674;28;20414;-55
2022/04/19 01:46:04;;;;;;;5.05;3.45;;;;;;;-140.79;100.00;63287.88;5024701;28;20032;-56
2022/04/19 01:48:29;;;;;;;5.32;3.80;;;;;;;-140.79;100.00;63287.88;5025520;28;20402;-55
2022/04/19 01:50:55;;;;;;;5.00;3.30;;;;;;;-140.79;100.00;63287.88;5024601;28;20038;-55
2022/04/19 01:53:20;;;;;;;6.13;3.90;;;;;;;-140.79;100.00;63287.88;5025008;28;20048;-55
2022/04/19 01:55:46;;;;;;;4.82;3.50;;;;;;;-140.79;100.00;63287.88;5025045;28;20044;-56
2022/04/19 01:58:12;;;;;;;5.13;3.50;;;;;;;-140.79;100.00;63287.88;5024905;28;20041;-56
2022/04/19 02:00:37;;;;;;;4.75;3.30;;;;;;;-140.79;100.00;63287.88;5024681;28;20029;-56
2022/04/19 02:03:03;;;;;;;5.20;3.50;;;;;;;-140.79;100.00;63287.88;5025327;28;20667;-55
2022/04/19 02:05:29;;;;;;;5.47;3.42;;;;;;;-140.79;100.00;63287.88;5024818;28;20033;-56
2022/04/19 02:07:54;;;;;;;4.50;3.45;;;;;;;-140.79;100.00;63287.88;5024970;28;20033;-55
2022/04/19 02:10:20;;;;;;;5.43;3.65;;;;;;;-140.79;100.00;63287.88;5041388;28;20102;-54
2022/04/19 02:12:45;;;;;;;5.05;3.20;;;;;;;-140.79;100.00;63287.88;5037849;28;20037;-55
2022/04/19 02:15:12;;;;;;;4.30;3.15;;;;;;;-140.79;100.00;63287.88;5033760;28;20466;-55
2022/04/19 02:17:44;;;;;;;4.95;3.17;;;;;;;-140.79;100.00;63287.88;5044906;28;20115;-55
2022/04/19 02:20:10;;;;;;;4.22;2.88;;;;;;;-140.79;100.00;63287.88;5042990;28;20033;-55
2022/04/19 02:22:36;;;;;;;4.05;3.10;;;;;;;-140.79;100.00;63287.88;5024260;28;20021;-56
2022/04/19 02:25:02;;;;;;;4.78;3.28;;;;;;;-140.79;100.00;63287.88;5024567;28;20512;-55
2022/04/19 02:27:30;;;;;;;4.45;3.20;;;;;;;-140.79;100.00;63287.88;5036548;28;20044;-55
2022/04/19 02:29:55;;;;;;;5.82;3.22;;;;;;;-140.79;100.00;63287.88;5043636;28;20045;-55
2022/04/19 02:32:23;;;;;;;4.57;3.30;;;;;;;-140.79;100.00;63287.88;5059484;28;20036;-55
2022/04/19 02:34:52;;;;;;;4.88;2.90;;;;;;;-140.79;100.00;63287.88;5038930;28;20034;-55
2022/04/19 02:37:17;;;;;;;4.25;2.70;;;;;;;-140.79;100.00;63287.88;5033810;28;20485;-55
2022/04/19 02:39:42;;;;;;;4.13;3.00;;;;;;;-140.79;100.00;63287.88;5043898;28;20032;-55
2022/04/19 02:42:08;;;;;;;3.88;2.90;;;;;;;-140.79;100.00;63287.88;5026589;28;20033;-54
2022/04/19 02:44:34;;;;;;;4.35;3.05;;;;;;;-140.79;100.00;63287.88;5032868;28;20052;-55
2022/04/19 02:47:01;;;;;;;4.88;3.40;;;;;;;-140.79;100.00;63287.88;5044330;28;20484;-55
2022/04/19 02:49:26;;;;;;;3.97;2.88;;;;;;;-140.79;100.00;63287.88;5044188;28;20033;-55
2022/04/19 02:51:51;;;;;;;4.03;2.85;;;;;;;-140.79;100.00;63287.88;5044063;28;20080;-55
2022/04/19 02:54:17;;;;;;;4.65;3.25;;;;;;;-140.79;100.00;63287.88;5025306;28;20048;-55
2022/04/19 02:56:42;;;;;;;5.38;2.97;;;;;;;-140.79;100.00;63287.88;5022752;28;20052;-55
2022/04/19 02:59:09;;;;;;;4.45;3.00;;;;;;;-140.79;100.00;63287.88;5024072;28;20175;-55
2022/04/19 03:01:35;;;;;;;4.25;2.72;;;;;;;-140.79;100.00;63287.88;5023831;28;20038;-54
2022/04/19 03:04:00;;;;;;;4.28;2.78;;;;;;;-140.79;100.00;63287.88;5024148;28;20087;-55
2022/04/19 03:06:26;;;;;;;4.07;3.05;;;;;;;-140.79;100.00;63287.88;5023451;28;20025;-55
2022/04/19 03:08:51;;;;;;;4.05;2.72;;;;;;;-140.79;100.00;63287.88;5024054;28;20452;-55
2022/04/19 03:11:16;;;;;;;3.88;2.75;;;;;;;-140.79;100.00;63287.88;5024032;28;21004;-55
2022/04/19 03:13:43;;;;;;;3.95;2.55;;;;;;;-140.79;100.00;63287.88;5023341;28;20068;-54
2022/04/19 03:16:13;;;;;;;4.20;3.10;;;;;;;-140.79;100.00;63287.88;5023636;28;20042;-55
2022/04/19 03:18:39;;;;;;;4.03;2.60;;;;;;;-140.79;100.00;63287.88;5024215;28;20025;-55
2022/04/19 03:21:05;;;;;;;3.67;2.45;;;;;;;-140.79;100.00;63287.88;5043534;28;20033;-55
2022/04/19 03:28:58;;;;;;;4.07;2.58;;;;;;;-140.79;100.00;63287.88;5033804;28;20106;-56
2022/04/19 03:31:24;;;;;;;3.80;2.45;;;;;;;-140.79;100.00;63287.88;5043744;28;20049;-55
2022/04/19 03:33:52;;;;;;;2.92;2.28;;;;;;;-140.79;100.00;63287.88;5047000;28;20064;-54
2022/04/19 03:36:18;;;;;;;3.75;2.63;;;;;;;-140.79;100.00;63287.88;5045552;28;20044;-55
2022/04/19 03:38:44;;;;;;;3.97;2.55;;;;;;;-140.79;100.00;63287.88;5047051;28;20028;-55
2022/04/19 03:41:09;;;;;;;3.65;2.22;;;;;;;-140.79;100.00;63287.88;5038699;28;20033;-55
2022/04/19 03:43:38;;;;;;;3.38;2.30;;;;;;;-140.79;100.00;63287.88;5045986;28;20033;-54
2022/04/19 03:46:04;;;;;;;3.33;2.53;;;;;;;-140.79;100.00;63287.88;5026915;28;20133;-55
2022/04/19 03:48:29;;;;;;;3.53;2.47;;;;;;;-140.79;100.00;63287.88;5027319;28;20096;-55
2022/04/19 03:50:55;;;;;;;3.80;2.50;;;;;;;-140.79;100.00;63287.88;5026432;28;20026;-55
2022/04/19 03:53:20;;;;;;;3.53;2.47;;;;;;;-140.79;100.00;63287.88;5026667;28;20025;-54
2022/04/19 03:55:46;;;;;;;3.58;2.40;;;;;;;-140.79;100.00;63287.88;5057805;28;20037;-54
2022/04/19 03:58:11;;;;;;;3.58;2.42;;;;;;;-140.79;100.00;63287.88;5042541;28;20116;-55
2022/04/19 04:00:37;;;;;;;3.17;2.10;;;;;;;-140.79;100.00;63287.88;5041735;28;20022;-54
2022/04/19 04:03:02;;;;;;;4.40;2.80;;;;;;;-140.79;100.00;63287.88;5056244;28;20032;-56
2022/04/19 04:05:28;;;;;;;3.13;2.20;;;;;;;-140.79;100.00;63287.88;5053609;28;20017;-56
2022/04/19 04:07:56;;;;;;;3.40;2.40;;;;;;;-140.79;100.00;63287.88;5064198;28;20062;-55
2022/04/19 04:10:21;;;;;;;3.08;2.10;;;;;;;-140.79;100.00;63287.88;5042450;28;20082;-56
2022/04/19 04:12:46;;;;;;;3.10;2.17;;;;;;;-140.79;100.00;63287.88;5060130;28;20495;-56
2022/04/19 04:15:12;;;;;;;3.13;2.08;;;;;;;-140.79;100.00;63287.88;5053123;28;20412;-55
2022/04/19 04:17:37;;;;;;;3.10;2.10;;;;;;;-140.79;100.00;63287.88;5043352;28;20048;-57
2022/04/19 04:20:03;;;;;;;3.40;2.10;;;;;;;-140.79;100.00;63287.88;5057053;28;20027;-55
2022/04/19 04:22:29;;;;;;;3.05;1.92;;;;;;;-140.79;100.00;63287.88;5057425;28;20052;-56
2022/04/19 04:24:55;;;;;;;2.85;1.80;;;;;;;-140.79;100.00;63287.88;5059618;28;20040;-56
2022/04/19 04:27:20;;;;;;;2.88;1.98;;;;;;;-140.79;100.00;63287.88;5046007;28;20033;-56
2022/04/19 04:29:46;;;;;;;2.63;1.92;;;;;;;-140.79;100.00;63287.88;5059120;28;20222;-56
2022/04/19 04:32:11;;;;;;;2.55;1.80;;;;;;;-140.79;100.00;63287.88;5060809;28;20792;-55
2022/04/19 04:34:37;;;;;;;2.70;2.05;;;;;;;-140.79;100.00;63287.88;5026040;28;20092;-55
2022/04/19 04:37:02;;;;;;;2.20;1.63;;;;;;;-140.79;100.00;63287.88;5027313;28;20022;-55
2022/04/19 04:39:28;;;;;;;2.40;1.70;;;;;;;-140.79;100.00;63287.88;5046318;28;20040;-56
2022/04/19 04:41:53;;;;;;;2.90;2.00;;;;;;;-140.79;100.00;63287.88;5034252;28;20111;-56
2022/04/19 04:44:19;;;;;;;2.35;1.65;;;;;;;-140.79;100.00;63287.88;5047108;28;20033;-54
2022/04/19 04:49:39;;;;;;;2.83;2.10;;;;;;;-140.79;100.00;63287.88;5048599;28;20087;-55
2022/04/19 04:52:05;;;;;;;2.60;1.80;;;;;;;-140.79;100.00;63287.88;5040156;28;20031;-55
2022/04/19 04:54:30;;;;;;;2.65;1.80;;;;;;;-140.79;100.00;63287.88;5026958;28;20072;-55
2022/04/19 04:56:56;;;;;;;2.60;1.73;;;;;;;-140.79;100.00;63287.88;5027420;28;20033;-56
2022/04/19 04:59:21;;;;;;;2.63;1.92;;;;;;;-140.79;100.00;63287.88;5030288;28;20032;-55
2022/04/19 05:01:47;;;;;;;2.30;1.80;;;;;;;-140.79;100.00;63287.88;5072257;28;20023;-56
2022/04/19 05:04:12;;;;;;;2.50;1.80;;;;;;;-140.79;100.00;63287.88;5053522;28;20503;-55
2022/04/19 05:06:38;;;;;;;3.30;2.00;;;;;;;-140.79;100.00;63287.88;5060477;28;20037;-54
2022/04/19 05:09:03;;;;;;;2.97;2.00;;;;;;;-140.79;100.00;63287.88;5048717;28;20021;-55
2022/04/19 05:11:29;;;;;;;3.35;1.80;;;;;;;-140.79;100.00;63287.88;5051025;28;20444;-54
2022/04/19 05:13:55;;;;;;;3.03;2.10;;;;;;;-140.79;100.00;63287.88;5056519;28;20742;-55
2022/04/19 05:16:20;;;;;;;3.03;2.00;;;;;;;-140.79;100.00;63287.88;5040124;28;20392;-55
2022/04/19 05:18:46;;;;;;;2.50;1.70;;;;;;;-140.79;100.00;63287.88;5046764;28;20608;-55
2022/04/19 05:21:11;;;;;;;2.88;1.70;;;;;;;-140.79;100.00;63287.88;5048096;28;20585;-55
2022/04/19 05:23:37;;;;;;;3.17;1.90;;;;;;;-140.79;100.00;63287.88;5055689;28;20479;-55
2022/04/19 05:26:02;;;;;;;2.15;1.70;;;;;;;-140.79;100.00;63287.88;5048395;28;20480;-55
2022/04/19 05:28:27;;;;;;;2.72;1.63;;;;;;;-140.79;100.00;63287.88;5044847;28;20036;-55
2022/04/19 05:30:53;;;;;;;2.35;1.80;;;;;;;-140.79;100.00;63287.88;5044218;28;20059;-51
2022/04/19 05:33:18;;;;;;;1.95;1.48;;;;;;;-140.79;100.00;63287.88;5053376;28;20043;-53
2022/04/19 05:35:44;;;;;;;2.40;1.80;;;;;;;-140.79;100.00;63287.88;5053525;28;20043;-54
2022/04/19 05:38:09;;;;;;;3.05;1.67;;;;;;;-140.79;100.00;63287.88;5054763;28;20043;-55
2022/04/19 05:40:35;;;;;;;2.05;1.60;;;;;;;-140.79;100.00;63287.88;5051565;28;20025;-55
2022/04/19 05:43:01;;;;;;;2.83;1.77;;;;;;;-140.79;100.00;63287.88;5052791;28;20040;-54
2022/04/19 05:45:27;;;;;;;2.88;1.70;;;;;;;-140.79;100.00;63287.88;5047350;28;20040;-54
2022/04/19 05:47:53;;;;;;;2.45;1.75;;;;;;;-140.79;100.00;63287.88;5056940;28;20424;-53
2022/04/19 05:50:18;;;;;;;2.45;1.75;;;;;;;-140.79;100.00;63287.88;5056331;28;20043;-54
2022/04/19 05:52:45;;;;;;;2.78;1.67;;;;;;;-140.79;100.00;63287.88;5059126;28;20099;-55
2022/04/19 05:55:10;;;;;;;2.88;1.58;;;;;;;-140.79;100.00;63287.88;5055092;28;20048;-53
2022/04/19 05:57:36;;;;;;;2.28;1.60;;;;;;;-140.79;100.00;63287.88;5057128;28;20093;-56
2022/04/19 06:00:01;;;;;;;2.13;1.70;;;;;;;-140.79;100.00;63287.88;5051521;28;20362;-53
2022/04/19 06:05:10;;;;;;;2.38;1.67;;;;;;;-140.79;100.00;63287.88;5032131;28;20051;-55
2022/04/19 06:07:45;;;;;;;2.65;1.90;;;;;;;-140.79;100.00;63287.88;5045050;28;20028;-54
2022/04/19 06:10:11;;;;;;;2.58;1.73;;;;;;;-140.79;100.00;63287.88;5026248;28;20493;-55
2022/04/19 06:12:38;;;;;;;3.13;1.70;;;;;;;-140.79;100.00;63287.88;5023531;28;20116;-53
2022/04/19 06:15:04;;;;;;;2.83;1.67;;;;;;;-140.79;100.00;63287.88;5041253;28;20020;-53
2022/04/19 06:17:35;;;;;;;2.35;1.73;;;;;;;-140.79;100.00;63287.88;5053963;28;20029;-54
2022/04/19 06:20:01;;;;;;;2.10;1.48;;;;;;;-140.79;100.00;63287.88;5053440;28;20024;-53
2022/04/19 06:22:27;;;;;;;2.75;1.83;;;;;;;-140.79;100.00;63287.88;5053988;28;20499;-54
2022/04/19 06:24:54;;;;;;;2.15;1.65;;;;;;;-140.79;100.00;63287.88;5037312;28;20044;-55
2022/04/19 06:27:19;;;;;;;2.45;1.88;;;;;;;-140.79;100.00;63287.88;5039279;28;20033;-55
2022/04/19 06:29:44;;;;;;;2.85;1.80;;;;;;;-140.79;100.00;63287.88;5048960;28;20464;-55
2022/04/19 06:32:11;;;;;;;3.85;1.60;;;;;;;-140.79;100.00;63287.88;5057897;28;20865;-55
2022/04/19 06:34:37;;;;;;;2.70;1.73;;;;;;;-140.79;100.00;63287.88;5074789;28;20140;-57
2022/04/19 06:37:03;;;;;;;1.95;1.50;;;;;;;-140.79;100.00;63287.88;5047292;28;20048;-56
2022/04/19 06:39:28;;;;;;;2.75;1.80;;;;;;;-140.79;100.00;63287.88;5052084;28;20032;-53
2022/04/19 06:41:54;;;;;;;2.85;1.85;;;;;;;-140.79;100.00;63287.88;5049125;28;20542;-57
2022/04/19 06:44:21;;;;;;;3.20;1.90;;;;;;;-140.79;100.00;63287.88;5054227;28;20518;-55
2022/04/19 06:46:47;;;;;;;3.60;1.95;;;;;;;-140.79;100.00;63287.88;5048974;28;20462;-54
2022/04/19 06:49:13;;;;;;;2.92;1.73;;;;;;;-140.79;100.00;63287.88;5050965;28;20502;-54
2022/04/19 06:51:39;;;;;;;2.38;1.60;;;;;;;-140.79;100.00;63287.88;5061985;28;20047;-54
2022/04/19 06:54:04;;;;;;;2.30;1.70;;;;;;;-140.79;100.00;63287.88;5052481;28;20025;-54
2022/04/19 06:56:31;;;;;;;2.60;1.80;;;;;;;-140.79;100.00;63287.88;5052118;28;20017;-55
2022/04/19 06:58:56;;;;;;;2.88;1.70;;;;;;;-140.79;100.00;63287.88;5046655;28;20021;-56
2022/04/19 07:01:23;;;;;;;2.60;1.70;;;;;;;-140.79;100.00;63287.88;5043798;28;20025;-55
2022/04/19 07:03:49;;;;;;;3.10;1.60;;;;;;;-140.79;100.00;63287.88;5044924;28;20094;-55
2022/04/19 07:06:14;;;;;;;2.55;1.65;;;;;;;-140.79;100.00;63287.88;5046085;28;20107;-54
2022/04/19 07:08:40;;;;;;;2.53;1.92;;;;;;;-140.79;100.00;63287.88;5048613;28;20024;-55
2022/04/19 07:11:05;;;;;;;2.65;1.95;;;;;;;-140.79;100.00;63287.88;5046160;28;20025;-56
2022/04/19 07:13:31;;;;;;;3.15;1.75;;;;;;;-140.79;100.00;63287.88;5049079;28;20455;-54
2022/04/19 07:15:57;;;;;;;2.70;1.67;;;;;;;-140.79;100.00;63287.88;5044922;28;20029;-54
2022/04/19 07:18:23;;;;;;;3.80;1.65;;;;;;;-140.79;100.00;63287.88;5048109;28;20090;-55
2022/04/19 07:29:01;;;;;;;2.47;1.90;;;;;;;-140.79;100.00;63287.88;5034485;28;20553;-55
2022/04/19 07:31:27;;;;;;;4.07;1.70;;;;;;;-140.79;100.00;63287.88;5037189;28;20060;-54
2022/04/19 07:33:52;;;;;;;2.75;2.10;;;;;;;-140.79;100.00;63287.88;5055941;28;20032;-54
2022/04/19 07:36:19;;;;;;;2.60;1.90;;;;;;;-140.79;100.00;63287.88;5055859;28;20438;-57
2022/04/19 07:38:44;;;;;;;3.55;1.92;;;;;;;-140.79;100.00;63287.88;5057861;28;20060;-54
2022/04/19 07:41:10;;;;;;;3.20;2.17;;;;;;;-140.79;100.00;63287.88;5060202;28;20033;-54
2022/04/19 07:43:35;;;;;;;2.95;1.80;;;;;;;-140.79;100.00;63287.88;5040446;28;20025;-54
2022/04/19 07:46:02;;;;;;;3.72;2.30;;;;;;;-140.79;100.00;63287.88;5054381;28;20020;-54
2022/04/19 07:48:27;;;;;;;2.20;1.70;;;;;;;-140.79;100.00;63287.88;5053711;28;20024;-55
2022/04/19 07:50:52;;;;;;;3.30;2.10;;;;;;;-140.79;100.00;63287.88;5055855;28;20021;-54
2022/04/19 07:53:18;;;;;;;3.13;2.05;;;;;;;-140.79;100.00;63287.88;5059225;28;20123;-55
2022/04/19 07:55:44;;;;;;;3.80;2.20;;;;;;;-140.79;100.00;63287.88;5051788;28;20444;-55
2022/04/19 07:58:09;;;;;;;3.72;2.22;;;;;;;-140.79;100.00;63287.88;5058236;28;20032;-56
2022/04/19 08:00:34;;;;;;;3.22;1.98;;;;;;;-140.79;100.00;63287.88;5054527;28;20029;-56
2022/04/19 08:03:00;;;;;;;3.30;2.08;;;;;;;-140.79;100.00;63287.88;5052490;28;20064;-58
2022/04/19 08:05:25;;;;;;;2.90;2.22;;;;;;;-140.79;100.00;63287.88;5056273;28;20040;-56
2022/04/19 08:07:51;;;;;;;2.65;1.85;;;;;;;-140.79;100.00;63287.88;5056173;28;20506;-55
2022/04/19 08:10:17;;;;;;;3.25;2.10;;;;;;;-140.79;100.00;63287.88;5060871;28;20048;-57
2022/04/19 08:12:43;;;;;;;2.85;1.95;;;;;;;-140.79;100.00;63287.88;5060963;28;20043;-56
2022/04/19 08:15:09;;;;;;;2.92;2.03;;;;;;;-140.79;100.00;63287.88;5062442;28;20024;-56
2022/04/19 08:17:35;;;;;;;2.97;2.03;;;;;;;-140.79;100.00;63287.88;5057100;28;20024;-57
2022/04/19 08:20:01;;;;;;;2.70;1.67;;;;;;;-140.79;100.00;63287.88;5044331;28;20033;-56
2022/04/19 08:22:27;;;;;;;2.70;1.90;;;;;;;-140.79;100.00;63287.88;5049592;28;20094;-56
2022/04/19 08:24:52;;;;;;;2.53;1.90;;;;;;;-140.79;100.00;63287.88;5064589;28;20036;-56
2022/04/19 08:27:18;;;;;;;2.10;1.70;;;;;;;-140.79;100.00;63287.88;5063068;28;20377;-55
2022/04/19 08:29:44;;;;;;;2.67;1.90;;;;;;;-140.79;100.00;63287.88;5062545;28;20052;-55
2022/04/19 08:32:10;;;;;;;2.63;1.80;;;;;;;-140.79;100.00;63287.88;5061838;28;20042;-57
2022/04/19 08:34:35;;;;;;;2.85;1.90;;;;;;;-140.79;100.00;63287.88;5072260;28;20296;-57
2022/04/19 08:37:02;;;;;;;2.85;1.92;;;;;;;-140.79;100.00;63287.88;5058725;28;20358;-58
2022/04/19 08:39:28;;;;;;;3.13;2.00;;;;;;;-140.79;100.00;63287.88;5060350;28;20119;-56
2022/04/19 08:41:54;;;;;;;2.83;2.08;;;;;;;-140.79;100.00;63287.88;5058284;28;20115;-56
2022/04/19 08:44:19;;;;;;;2.47;1.90;;;;;;;-140.79;100.00;63287.88;5056796;28;20020;-59
2022/04/19 08:46:44;;;;;;;3.00;1.83;;;;;;;-140.79;100.00;63287.88;5061601;28;20157;-56
2022/04/19 08:49:13;;;;;;;2.83;1.92;;;;;;;-140.79;100.00;63287.88;5054057;28;20264;-55
2022/04/19 08:51:39;;;;;;;3.60;2.00;;;;;;;-140.79;100.00;63287.88;5061257;28;20107;-56
2022/04/19 08:59:34;;;;;;;2.92;2.10;;;;;;;-140.79;100.00;63287.88;5059658;28;20043;-57
2022/04/19 09:02:00;;;;;;;3.22;1.90;;;;;;;-140.79;100.00;63287.88;5057399;28;20024;-55
2022/04/19 09:04:25;;;;;;;2.42;2.05;;;;;;;-140.79;100.00;63287.88;5058314;28;20025;-56
2022/04/19 09:07:00;;;;;;;4.03;2.20;;;;;;;-140.79;100.00;63287.88;5053487;28;20052;-56
2022/04/19 09:09:32;;;;;;;3.35;2.08;;;;;;;-140.79;100.00;63287.88;5044919;28;20037;-56
2022/04/19 09:12:11;;;;;;;3.38;2.20;;;;;;;-140.79;100.00;63287.88;5044641;28;20039;-56
2022/04/19 09:14:56;;;;;;;4.53;2.55;;;;;;;-140.79;100.00;63287.88;5041023;28;20036;-56
2022/04/19 09:17:34;;;;;;;3.78;2.50;;;;;;;-140.79;100.00;63287.88;5026003;28;20033;-56
2022/04/19 09:20:09;;;;;;;3.58;2.40;;;;;;;-140.79;100.00;63287.88;5028126;28;20067;-55
2022/04/19 09:22:36;;;;;;;3.08;2.15;;;;;;;-140.79;100.00;63287.88;5038259;28;20029;-55
2022/04/19 09:25:17;;;;;;;3.65;2.25;;;;;;;-140.79;100.00;63287.88;5025894;28;20033;-56
2022/04/19 09:27:44;;;;;;;3.25;2.15;;;;;;;-140.79;100.00;63287.88;5045194;28;20119;-55
2022/04/19 09:30:19;;;;;;;3.38;2.30;;;;;;;-140.79;100.00;63287.88;5044398;28;20120;-56
2022/04/19 09:33:02;;;;;;;3.30;2.05;;;;;;;-140.79;100.00;63287.88;5038243;28;20033;-55
2022/04/19 09:35:54;;;;;;;2.92;2.10;;;;;;;-140.79;100.00;63287.88;5046584;28;20412;-56
2022/04/19 09:38:39;;;;;;;2.90;1.95;;;;;;;-140.79;100.00;63287.88;5052074;28;20044;-56
2022/04/19 09:41:13;;;;;;;3.92;2.17;;;;;;;-140.79;100.00;63287.88;5034315;28;20692;-56
2022/04/19 09:43:39;;;;;;;3.08;2.38;;;;;;;-140.79;100.00;63287.88;5033918;28;20036;-54
2022/04/19 09:46:05;;;;;;;3.00;1.95;;;;;;;-140.79;100.00;63287.88;5053099;28;20021;-56
2022/04/19 09:48:35;;;;;;;2.80;2.10;;;;;;;-140.79;100.00;63287.88;5046358;28;20029;-55
2022/04/19 09:51:03;;;;;;;3.08;2.20;;;;;;;-140.79;100.00;63287.88;5053414;28;20033;-55
2022/04/19 09:53:39;;;;;;;3.33;2.25;;;;;;;-140.79;100.00;63287.88;5052244;28;20196;-54
2022/04/19 09:56:11;;;;;;;3.38;2.10;;;;;;;-140.79;100.00;63287.88;5031691;28;20032;-55
2022/04/19 09:58:40;;;;;;;4.55;2.50;;;;;;;-140.79;100.00;63287.88;5037271;28;20036;-55
2022/04/19 10:01:05;;;;;;;4.32;2.35;;;;;;;-140.79;100.00;63287.88;5034634;28;20057;-55
2022/04/19 10:09:13;;;;;;;4.72;2.92;;;;;;;-140.79;100.00;63287.88;5042278;28;20032;-54
2022/04/19 10:11:40;;;;;;;4.22;2.50;;;;;;;-140.79;100.00;63287.88;5037167;28;20021;-55
2022/04/19 10:14:05;;;;;;;4.25;2.40;;;;;;;-140.79;100.00;63287.88;5030871;28;20038;-55
2022/04/19 10:16:30;;;;;;;4.47;2.53;;;;;;;-140.79;100.00;63287.88;5027856;28;21621;-55
2022/04/19 10:18:56;;;;;;;3.97;2.25;;;;;;;-140.79;100.00;63287.88;5041136;28;20536;-55
2022/04/19 10:21:26;;;;;;;4.10;2.50;;;;;;;-140.79;100.00;63287.88;5024848;28;20041;-55
2022/04/19 10:23:56;;;;;;;;;;;;;;;-140.79;100.00;63287.88;5041962;28;20041;-55
2022/04/19 10:26:22;;;;;;;3.20;2.17;;;;;;;-140.79;100.00;63287.88;5051917;28;19946;-56
2022/04/19 10:28:52;;;;;;;3.55;2.28;;;;;;;-140.79;100.00;63287.88;5025847;28;20120;-55
2022/04/19 10:31:30;;;;;;;3.50;2.10;;;;;;;-140.79;100.00;63287.88;5047645;28;20049;-54
2022/04/19 10:34:00;;;;;;;4.55;2.30;;;;;;;-140.79;100.00;63287.88;5044959;28;20884;-55
2022/04/19 10:36:39;;;;;;;5.50;2.17;;;;;;;-140.79;100.00;63287.88;5057410;28;20040;-56
2022/04/19 10:39:14;;;;;;;4.20;2.10;;;;;;;-140.79;100.00;63287.88;5031173;28;20025;-54
2022/04/19 10:42:03;;;;;;;4.22;2.55;;;;;;;-140.79;100.00;63287.88;5051037;28;20039;-56
2022/04/19 10:44:43;;;;;;;5.05;2.63;;;;;;;-140.79;100.00;63287.88;5055953;28;20036;-57
2022/04/19 10:47:11;;;;;;;3.97;2.25;;;;;;;-140.79;100.00;63287.88;5033386;28;20029;-56
2022/04/19 10:49:55;;;;;;;3.65;2.30;;;;;;;-140.79;100.00;63287.88;5034539;28;20079;-56
2022/04/19 10:52:39;;;;;;;3.13;2.20;;;;;;;-140.79;100.00;63287.88;5050201;28;20055;-56
2022/04/19 10:55:23;;;;;;;3.78;2.38;;;;;;;-140.79;100.00;63287.88;5054936;28;20107;-58
2022/04/19 11:00:40;;;;;;;3.83;2.30;;;;;;;-140.79;100.00;63287.88;5049716;28;20095;-54
2022/04/19 11:03:14;;;;;;;4.70;2.70;;;;;;;-140.79;100.00;63287.88;5056776;28;20049;-55
2022/04/19 11:05:45;;;;;;;3.45;2.15;;;;;;;-140.79;100.00;63287.88;5054106;28;20733;-58
2022/04/19 11:08:26;;;;;;;4.35;2.15;;;;;;;-140.79;100.00;63287.88;5059701;28;20045;-56
2022/04/19 11:11:06;;;;;;;3.03;2.10;;;;;;;-140.79;100.00;63287.88;5055082;28;20103;-55
2022/04/19 11:13:35;;;;;;;4.22;2.50;;;;;;;-140.79;100.00;63287.88;5055357;28;20096;-57
2022/04/19 11:16:01;;;;;;;4.05;2.42;;;;;;;-140.79;100.00;63287.88;5055548;28;20028;-55
2022/04/19 11:18:28;;;;;;;4.15;2.42;;;;;;;-140.79;100.00;63287.88;5031948;28;20648;-57
2022/04/19 11:20:55;;;;;;;3.95;2.30;;;;;;;-140.79;100.00;63287.88;5039985;28;20029;-57
2022/04/19 11:23:22;;;;;;;4.18;2.10;;;;;;;-140.79;100.00;63287.88;5025524;28;20041;-54
2022/04/19 11:25:49;;;;;;;4.18;2.50;;;;;;;-140.79;100.00;63287.88;5025044;28;20036;-56
2022/04/19 11:28:27;;;;;;;3.80;2.10;;;;;;;-140.79;100.00;63287.88;5025148;28;20459;-56
2022/04/19 11:30:55;;;;;;;4.40;2.30;;;;;;;-140.79;100.00;63287.88;5030285;28;20045;-55
2022/04/19 11:33:22;;;;;;;3.63;2.28;;;;;;;-140.79;100.00;63287.88;5044721;28;20413;-55
2022/04/19 11:36:06;;;;;;;3.97;2.40;;;;;;;-140.79;100.00;63287.88;5058372;28;20033;-55
2022/04/19 11:38:34;;;;;;;3.42;2.55;;;;;;;-140.79;100.00;63287.88;5028295;28;20025;-56
2022/04/19 11:46:47;;;;;;;4.35;2.80;;;;;;;-140.79;100.00;63287.88;5029034;28;20064;-54
2022/04/19 11:49:27;;;;;;;3.83;2.30;;;;;;;-140.79;100.00;63287.88;5032424;28;20033;-56
2022/04/19 11:52:03;;;;;;;4.13;2.67;;;;;;;-140.79;100.00;63287.88;5042565;28;20061;-56